FABL/BFN METAR and TAF weather

Enter ICAO airport designator
Station Type Date Time Source
FABL METAR 2022/01/29 13:00 UTC NOAA

FABL 291300Z 30003KT 9999 SCT040 30/09 Q1018 NOSIG


Station Type Date Time Source
FABL Decoded METAR 2022/01/29 13:00 UTC NOAA

Bloemfontein, Bloemfontein Airport, South Africa (FABL) 29-06S 026-18E 1400M
Jan 29, 2022 - 08:00 AM EST / 2022.01.29 1300 UTC
Wind: from the WNW (300 degrees) at 3 MPH (3 KT):0
Visibility: greater than 7 mile(s):0
Sky conditions: partly cloudy
Temperature: 86 F (30 C)
Dew Point: 48 F (9 C)
Relative Humidity: 27%
Pressure (altimeter): 30.06 in. Hg (1018 hPa)
ob: FABL 291300Z 30003KT 9999 SCT040 30/09 Q1018 NOSIG
cycle: 13

Station Type Date Time Source
FABL TAF 2022/01/29 12:12 UTC NOAA

TAF TAF FABL 291000Z 2912/3012 VRB03KT 9999 FEW040TCU TX32/2912Z TN16/3003Z PROB30
TEMPO 2915/2918 -TSRA FEW040CB

Example: see airport list